Main page
METAR-TAF:

METAR-TAF

Airports :

Termez, Uzbekistan

Termez Airport

latitude: 37-14N, longitude: 067-16E, elevation: 302 m

Current weather observation

The report was made 49 minutes ago, at 09:30 UTC
Wind 4 kt from the West, varying between Southwest and Northwest
Temperature 35°C
Humidity 13%
Pressure 1008 hPa
Visibility 10 km or more
no clouds below 1500 m and no cumulonimbus

METAR: UTST 210930Z 28004KT 230V320 CAVOK 35/03 Q1008 R88/CLRD70 NOSIG

Time: 15:19 (10:19 UTC)

Forecast

The report was made 5 hours and 19 minutes ago, at 05:00 UTC
Forecast valid from 21 at 06 UTC to 22 at 06 UTC
Wind 6 kt from variable directions
Visibility: 6000 m
Temporary
from 21 at 10 UTC to 21 at 19 UTC
Wind 10 kt from the West/Southwest with gusts up to 20 kt

TAF: UTST 210500Z 2106/2206 VRB06KT 6000 NSC TX36/2111Z TEMPO 2110/2119 25010G20KT

Weather observations and forecasts of more than 4000 airports (METAR and TAF reports).

The available stations are represented by yellow and red dots on the map.

Hover mouse over dot to see the name of the station.

Then click to see weather observations and forecasts.

To change the map : click on the green buttons with a black cross to zoom in, on the green button with a dash to zoom out, or on the green arrows for adjacent maps.


METAR-TAF: